Time;durP1;ratioP1;P1;durP2;ratioP2;P2;SDS_P1;SDS_P2;PMS_P1;PMS_P2;Temp;Humidity;BMP_temperature;BMP_pressure;BME280_temperature;BME280_humidity;BME280_pressure;Samples;Min_cycle;Max_cycle;Signal;HPM_P1;HPM_P2
2022/08/05 00:00:15;;;;;;;15.32;7.45;;;;;;;-146.58;100.00;69501.63;5018357;28;20041;-60
2022/08/05 00:02:41;;;;;;;8.30;7.05;;;;;;;-146.58;100.00;69501.63;5016700;28;20024;-60
2022/08/05 00:05:07;;;;;;;13.52;6.70;;;;;;;-146.58;100.00;69501.63;5019950;28;20038;-60
2022/08/05 00:07:32;;;;;;;13.68;7.65;;;;;;;-146.58;100.00;69501.63;5021539;28;20029;-59
2022/08/05 00:09:58;;;;;;;15.43;7.68;;;;;;;-146.58;100.00;69501.63;5020571;28;20038;-60
2022/08/05 00:12:23;;;;;;;8.93;6.72;;;;;;;-146.58;100.00;69501.63;5021029;28;20032;-60
2022/08/05 00:14:49;;;;;;;15.23;7.22;;;;;;;-146.58;100.00;69501.63;5019903;28;20045;-59
2022/08/05 00:17:14;;;;;;;10.00;6.88;;;;;;;-146.58;100.00;69501.63;5019037;28;20032;-60
2022/08/05 00:19:40;;;;;;;18.25;7.72;;;;;;;-146.58;100.00;69501.63;5019116;28;20041;-60
2022/08/05 00:22:05;;;;;;;17.95;7.93;;;;;;;-146.58;100.00;69501.63;5013912;28;20025;-60
2022/08/05 00:24:30;;;;;;;12.40;8.30;;;;;;;-146.58;100.00;69501.63;5009631;28;20037;-59
2022/08/05 00:26:56;;;;;;;15.10;8.95;;;;;;;-146.58;100.00;69501.63;5011690;28;20416;-60
2022/08/05 00:29:21;;;;;;;11.85;9.32;;;;;;;-146.58;100.00;69501.63;5009728;28;20042;-60
2022/08/05 00:31:47;;;;;;;16.95;7.50;;;;;;;-146.58;100.00;69501.63;5019818;28;20059;-60
2022/08/05 00:34:12;;;;;;;16.38;9.95;;;;;;;-146.58;100.00;69501.63;5029725;28;20017;-60
2022/08/05 00:36:38;;;;;;;16.08;8.18;;;;;;;-146.58;100.00;69501.63;5031174;28;20086;-60
2022/08/05 00:39:03;;;;;;;11.02;8.18;;;;;;;-146.58;100.00;69501.63;5031106;28;20029;-59
2022/08/05 00:41:30;;;;;;;13.63;8.18;;;;;;;-146.58;100.00;69501.63;5029189;28;20034;-59
2022/08/05 00:43:56;;;;;;;9.63;6.63;;;;;;;-146.58;100.00;69501.63;5021821;28;20026;-59
2022/08/05 00:46:22;;;;;;;15.55;8.57;;;;;;;-146.58;100.00;69501.63;5009864;28;20045;-60
2022/08/05 00:48:47;;;;;;;15.25;7.63;;;;;;;-146.58;100.00;69501.63;5021107;28;20063;-61
2022/08/05 00:51:13;;;;;;;18.33;8.30;;;;;;;-146.58;100.00;69501.63;5029678;28;20428;-61
2022/08/05 00:53:39;;;;;;;15.18;6.90;;;;;;;-146.58;100.00;69501.63;5031107;28;20022;-61
2022/08/05 00:56:04;;;;;;;9.35;6.88;;;;;;;-146.58;100.00;69501.63;5029165;28;20048;-61
2022/08/05 00:58:30;;;;;;;8.25;6.22;;;;;;;-146.58;100.00;69501.63;5014449;28;20034;-61
2022/08/05 01:00:55;;;;;;;7.15;5.38;;;;;;;-146.58;100.00;69501.63;5010011;28;20485;-61
2022/08/05 01:03:20;;;;;;;10.30;6.53;;;;;;;-146.58;100.00;69501.63;5010633;28;20030;-61
2022/08/05 01:05:46;;;;;;;8.10;6.00;;;;;;;-146.58;100.00;69501.63;5028119;28;20037;-61
2022/08/05 01:08:11;;;;;;;8.10;6.47;;;;;;;-146.58;100.00;69501.63;5014395;28;20068;-61
2022/08/05 01:10:45;;;;;;;9.18;6.53;;;;;;;-146.58;100.00;69501.63;5015154;28;20501;-61
2022/08/05 01:13:36;;;;;;;7.78;5.82;;;;;;;-146.58;100.00;69501.63;5030762;28;20032;-61
2022/08/05 01:16:05;;;;;;;12.15;6.68;;;;;;;-146.58;100.00;69501.63;5007657;28;20045;-60
2022/08/05 01:18:36;;;;;;;8.25;6.03;;;;;;;-146.58;100.00;69501.63;5015699;28;20024;-60
2022/08/05 01:21:27;;;;;;;8.32;6.53;;;;;;;-146.58;100.00;69501.63;5028661;28;20513;-59
2022/08/05 01:24:10;;;;;;;11.70;6.28;;;;;;;-146.58;100.00;69501.63;5030365;28;20030;-60
2022/08/05 01:27:00;;;;;;;11.05;6.78;;;;;;;-146.58;100.00;69501.63;5027719;28;20077;-59
2022/08/05 01:29:33;;;;;;;11.27;7.20;;;;;;;-146.58;100.00;69501.63;5009069;28;20042;-59
2022/08/05 01:32:02;;;;;;;9.02;6.05;;;;;;;-146.58;100.00;69501.63;5010803;28;20040;-59
2022/08/05 01:34:33;;;;;;;8.73;6.70;;;;;;;-146.58;100.00;69501.63;5009165;28;20561;-60
2022/08/05 01:37:06;;;;;;;10.48;6.72;;;;;;;-146.58;100.00;69501.63;5012445;28;20032;-59
2022/08/05 01:39:35;;;;;;;8.52;6.15;;;;;;;-146.58;100.00;69501.63;5024344;28;20050;-59
2022/08/05 01:42:02;;;;;;;11.43;6.80;;;;;;;-146.58;100.00;69501.63;5010545;28;20034;-59
2022/08/05 01:44:28;;;;;;;10.40;7.20;;;;;;;-146.58;100.00;69501.63;5009748;28;20042;-59
2022/08/05 01:46:54;;;;;;;8.25;7.00;;;;;;;-146.58;100.00;69501.63;5021075;28;20021;-59
2022/08/05 01:49:24;;;;;;;25.02;8.30;;;;;;;-146.58;100.00;69501.63;5028239;28;20037;-58
2022/08/05 01:51:52;;;;;;;18.63;8.10;;;;;;;-146.58;100.00;69501.63;5026971;28;20033;-60
2022/08/05 01:54:19;;;;;;;11.32;6.93;;;;;;;-146.58;100.00;69501.63;5010968;28;20621;-59
2022/08/05 01:56:48;;;;;;;10.75;6.47;;;;;;;-146.58;100.00;69501.63;5014624;28;20032;-60
2022/08/05 01:59:16;;;;;;;16.02;7.72;;;;;;;-146.58;100.00;69501.63;5012911;28;20025;-60
2022/08/05 02:01:42;;;;;;;8.65;6.10;;;;;;;-146.58;100.00;69501.63;5029475;28;20522;-59
2022/08/05 02:04:09;;;;;;;7.35;6.38;;;;;;;-146.58;100.00;69501.63;5032659;28;20083;-60
2022/08/05 02:06:35;;;;;;;11.80;6.75;;;;;;;-146.58;100.00;69501.63;5014540;28;20033;-60
2022/08/05 02:09:01;;;;;;;9.43;4.68;;;;;;;-146.58;100.00;69501.63;5013861;28;20030;-60
2022/08/05 02:11:36;;;;;;;8.90;6.18;;;;;;;-146.58;100.00;69501.63;5021306;28;20520;-60
2022/08/05 02:14:09;;;;;;;11.00;6.65;;;;;;;-146.58;100.00;69501.63;5034177;28;20073;-60
2022/08/05 02:16:49;;;;;;;15.63;7.22;;;;;;;-146.58;100.00;69501.63;5012766;28;20037;-60
2022/08/05 02:19:26;;;;;;;13.52;5.72;;;;;;;-146.58;100.00;69501.63;5012641;28;20091;-60
2022/08/05 02:21:58;;;;;;;10.23;5.90;;;;;;;-146.58;100.00;69501.63;5014092;28;20033;-60
2022/08/05 02:24:33;;;;;;;8.45;5.97;;;;;;;-146.58;100.00;69501.63;5023607;28;20113;-59
2022/08/05 02:27:02;;;;;;;10.05;5.10;;;;;;;-146.58;100.00;69501.63;5021686;28;20045;-59
2022/08/05 02:29:31;;;;;;;9.68;5.90;;;;;;;-146.58;100.00;69501.63;5032116;28;20057;-59
2022/08/05 02:31:58;;;;;;;9.57;5.65;;;;;;;-146.58;100.00;69501.63;5033328;28;20110;-59
2022/08/05 02:34:27;;;;;;;8.50;6.38;;;;;;;-146.58;100.00;69501.63;5031999;28;20025;-60
2022/08/05 02:36:56;;;;;;;14.75;6.28;;;;;;;-146.58;100.00;69501.63;5030574;28;20040;-60
2022/08/05 02:39:23;;;;;;;12.75;5.22;;;;;;;-146.58;100.00;69501.63;5016463;28;20040;-60
2022/08/05 02:41:50;;;;;;;9.88;6.00;;;;;;;-146.58;100.00;69501.63;5033446;28;20021;-60
2022/08/05 02:44:17;;;;;;;12.88;6.97;;;;;;;-146.58;100.00;69501.63;5025515;28;20024;-59
2022/08/05 02:46:45;;;;;;;9.18;4.95;;;;;;;-146.58;100.00;69501.63;5031221;28;20059;-60
2022/08/05 02:49:14;;;;;;;16.73;6.15;;;;;;;-146.58;100.00;69501.63;5031975;28;20044;-60
2022/08/05 02:51:40;;;;;;;12.13;7.82;;;;;;;-146.58;100.00;69501.63;5032429;28;20033;-60
2022/08/05 02:54:06;;;;;;;9.35;5.95;;;;;;;-146.58;100.00;69501.63;5031201;28;20481;-60
2022/08/05 02:56:33;;;;;;;7.55;5.30;;;;;;;-146.58;100.00;69501.63;5029761;28;20031;-59
2022/08/05 02:59:00;;;;;;;8.17;4.93;;;;;;;-146.58;100.00;69501.63;5013454;28;20037;-60
2022/08/05 03:01:27;;;;;;;8.23;5.85;;;;;;;-146.58;100.00;69501.63;5011197;28;20037;-59
2022/08/05 03:04:00;;;;;;;7.15;5.03;;;;;;;-146.58;100.00;69501.63;5013182;28;20436;-59
2022/08/05 03:06:26;;;;;;;10.55;5.25;;;;;;;-146.58;100.00;69501.63;5012698;28;20523;-59
2022/08/05 03:08:52;;;;;;;8.95;5.47;;;;;;;-146.58;100.00;69501.63;5032484;28;20037;-60
2022/08/05 03:11:18;;;;;;;10.52;5.40;;;;;;;-146.58;100.00;69501.63;5031172;28;20136;-59
2022/08/05 03:13:44;;;;;;;13.02;4.88;;;;;;;-146.58;100.00;69501.63;5016313;28;20537;-59
2022/08/05 03:16:09;;;;;;;10.68;6.07;;;;;;;-146.58;100.00;69501.63;5011151;28;20053;-59
2022/08/05 03:18:35;;;;;;;12.80;7.80;;;;;;;-146.58;100.00;69501.63;5012888;28;20030;-60
2022/08/05 03:21:00;;;;;;;10.40;5.57;;;;;;;-146.58;100.00;69501.63;5029895;28;20492;-59
2022/08/05 03:23:26;;;;;;;6.95;5.97;;;;;;;-146.58;100.00;69501.63;5030668;28;20480;-59
2022/08/05 03:25:52;;;;;;;11.68;6.88;;;;;;;-146.58;100.00;69501.63;5023080;28;20045;-61
2022/08/05 03:28:18;;;;;;;12.25;5.93;;;;;;;-146.58;100.00;69501.63;5020492;28;20061;-60
2022/08/05 03:30:44;;;;;;;9.27;6.65;;;;;;;-146.58;100.00;69501.63;5011049;28;20050;-61
2022/08/05 03:33:10;;;;;;;10.63;7.63;;;;;;;-146.58;100.00;69501.63;5012526;28;20041;-61
2022/08/05 03:35:36;;;;;;;9.30;5.40;;;;;;;-146.58;100.00;69501.63;5010822;28;20441;-61
2022/08/05 03:38:01;;;;;;;12.63;6.93;;;;;;;-146.58;100.00;69501.63;5013538;28;20381;-60
2022/08/05 03:40:28;;;;;;;13.52;7.03;;;;;;;-146.58;100.00;69501.63;5010897;28;20034;-60
2022/08/05 03:42:53;;;;;;;9.60;6.10;;;;;;;-146.58;100.00;69501.63;5030195;28;20552;-63
2022/08/05 03:45:19;;;;;;;12.13;8.23;;;;;;;-146.58;100.00;69501.63;5029985;28;20041;-62
2022/08/05 03:47:45;;;;;;;16.48;6.75;;;;;;;-146.58;100.00;69501.63;5031398;28;20519;-62
2022/08/05 03:50:10;;;;;;;8.52;5.43;;;;;;;-146.58;100.00;69501.63;5030787;28;20038;-61
2022/08/05 03:53:06;;;;;;;7.90;5.75;;;;;;;-146.58;100.00;69501.63;5030842;28;20381;-62
2022/08/05 03:55:36;;;;;;;13.13;6.10;;;;;;;-146.58;100.00;69501.63;5018260;28;20046;-62
2022/08/05 03:58:03;;;;;;;6.45;5.13;;;;;;;-146.58;100.00;69501.63;5012503;28;20021;-63
2022/08/05 04:00:31;;;;;;;6.72;5.85;;;;;;;-146.58;100.00;69501.63;5010375;28;20037;-62
2022/08/05 04:03:00;;;;;;;19.58;6.70;;;;;;;-146.58;100.00;69501.63;5012160;28;20037;-62
2022/08/05 04:05:31;;;;;;;9.68;4.93;;;;;;;-146.58;100.00;69501.63;5016452;28;20053;-62
2022/08/05 04:07:57;;;;;;;12.27;6.32;;;;;;;-146.58;100.00;69501.63;5020295;28;20036;-62
2022/08/05 04:10:22;;;;;;;7.45;5.82;;;;;;;-146.58;100.00;69501.63;5019521;28;20053;-62
2022/08/05 04:12:48;;;;;;;9.98;5.72;;;;;;;-146.58;100.00;69501.63;5017452;28;20029;-60
2022/08/05 04:15:13;;;;;;;10.63;6.80;;;;;;;-146.58;100.00;69501.63;5019849;28;20050;-61
2022/08/05 04:17:39;;;;;;;7.68;5.38;;;;;;;-146.58;100.00;69501.63;5019056;28;20105;-61
2022/08/05 04:20:04;;;;;;;10.18;5.55;;;;;;;-146.58;100.00;69501.63;5018119;28;20045;-60
2022/08/05 04:22:30;;;;;;;11.43;6.47;;;;;;;-146.58;100.00;69501.63;5021889;28;20113;-60
2022/08/05 04:24:55;;;;;;;9.85;7.47;;;;;;;-146.58;100.00;69501.63;5019305;28;20507;-61
2022/08/05 04:27:21;;;;;;;10.68;5.85;;;;;;;-146.58;100.00;69501.63;5018137;28;20050;-64
2022/08/05 04:29:46;;;;;;;10.65;7.70;;;;;;;-146.58;100.00;69501.63;5019777;28;20046;-60
2022/08/05 04:32:11;;;;;;;12.35;6.43;;;;;;;-146.58;100.00;69501.63;5021752;28;20029;-60
2022/08/05 04:34:37;;;;;;;10.15;8.07;;;;;;;-146.58;100.00;69501.63;5015504;28;20513;-60
2022/08/05 04:37:03;;;;;;;11.88;6.93;;;;;;;-146.58;100.00;84068.69;5019708;28;20034;-60
2022/08/05 04:39:28;;;;;;;7.78;6.70;;;;;;;15.64;100.00;153265.53;5019137;28;20042;-60
2022/08/05 04:41:54;;;;;;;13.18;6.95;;;;;;;15.72;100.00;150442.06;5028263;28;20660;-58
2022/08/05 04:44:19;;;;;;;12.95;7.75;;;;;;;15.76;100.00;147610.06;5029290;28;20037;-58
2022/08/05 04:46:44;;;;;;;21.50;9.13;;;;;;;15.75;100.00;146187.50;5023720;28;20029;-59
2022/08/05 04:49:10;;;;;;;15.10;9.75;;;;;;;15.75;100.00;141928.78;5012968;28;20026;-59
2022/08/05 04:51:35;;;;;;;19.33;10.45;;;;;;;15.72;100.00;138378.53;5018370;28;20040;-59
2022/08/05 04:54:00;;;;;;;17.38;11.10;;;;;;;15.70;100.00;135541.84;5021599;28;20024;-59
2022/08/05 04:56:26;;;;;;;11.68;8.70;;;;;;;15.67;100.00;133410.53;5017784;28;20042;-58
2022/08/05 04:58:51;;;;;;;19.45;11.13;;;;;;;15.62;100.00;130924.78;5020805;28;20030;-59
2022/08/05 05:01:17;;;;;;;15.80;10.60;;;;;;;15.63;100.00;127744.66;5015866;28;20030;-59
2022/08/05 05:03:42;;;;;;;17.25;12.02;;;;;;;15.59;100.00;125617.06;5021603;28;20112;-59
2022/08/05 05:06:11;;;;;;;16.45;10.65;;;;;;;15.57;100.00;122790.03;5013045;28;20057;-58
2022/08/05 05:08:37;;;;;;;18.77;12.13;;;;;;;15.54;100.00;119609.63;5019390;28;20366;-57
2022/08/05 05:11:03;;;;;;;15.13;11.00;;;;;;;15.47;100.00;116073.09;5018147;28;20044;-58
2022/08/05 05:13:28;;;;;;;11.77;10.23;;;;;;;15.50;100.00;112204.88;5020123;28;20026;-58
2022/08/05 05:15:53;;;;;;;17.00;12.15;;;;;;;15.50;100.00;107633.41;5018425;28;20049;-58
2022/08/05 05:18:19;;;;;;;17.00;11.93;;;;;;;15.48;100.00;103765.09;5018585;28;20034;-58
2022/08/05 05:20:45;;;;;;;16.98;12.02;;;;;;;15.49;100.00;100607.34;5019263;28;20029;-57
2022/08/05 05:23:12;;;;;;;18.58;12.07;;;;;;;15.44;100.00;98493.66;5017368;28;20053;-58
2022/08/05 05:25:39;;;;;;;16.33;12.18;;;;;;;15.43;100.00;95687.50;5017059;28;20061;-58
2022/08/05 05:28:05;;;;;;;17.17;13.13;;;;;;;15.45;100.00;93238.13;5018410;28;20041;-57
2022/08/05 05:30:30;;;;;;;15.13;13.40;;;;;;;-146.58;100.00;69501.63;5021542;28;20464;-58
2022/08/05 05:32:56;;;;;;;17.90;13.05;;;;;;;-146.58;100.00;69501.63;5023645;28;20041;-58
2022/08/05 05:35:22;;;;;;;24.65;13.82;;;;;;;-146.58;100.00;69501.63;5019680;28;20041;-58
2022/08/05 05:37:56;;;;;;;23.52;15.57;;;;;;;-146.58;100.00;69501.63;5020823;28;20026;-58
2022/08/05 05:40:23;;;;;;;17.73;12.57;;;;;;;-146.58;100.00;69501.63;5018264;28;20123;-58
2022/08/05 05:42:49;;;;;;;23.88;13.32;;;;;;;-146.58;100.00;69501.63;5030344;28;20114;-58
2022/08/05 05:45:15;;;;;;;19.75;13.93;;;;;;;-146.58;100.00;69501.63;5014583;28;20112;-58
2022/08/05 05:47:41;;;;;;;19.63;13.35;;;;;;;-146.58;100.00;69501.63;5015620;28;20148;-58
2022/08/05 05:50:09;;;;;;;21.02;12.20;;;;;;;-146.58;100.00;69501.63;5022093;28;20042;-61
2022/08/05 05:52:34;;;;;;;17.05;12.38;;;;;;;-146.58;100.00;69501.63;5020977;28;20040;-61
2022/08/05 05:55:05;;;;;;;20.27;12.65;;;;;;;-146.58;100.00;69501.63;5020913;28;20037;-61
2022/08/05 05:57:31;;;;;;;15.50;12.60;;;;;;;-146.58;100.00;69501.63;5020900;28;20037;-61
2022/08/05 05:59:56;;;;;;;27.80;13.98;;;;;;;-146.58;100.00;69501.63;5021871;28;20045;-61
2022/08/05 06:02:21;;;;;;;18.48;14.52;;;;;;;-146.58;100.00;69501.63;5020676;28;20033;-60
2022/08/05 06:04:46;;;;;;;22.67;15.65;;;;;;;-146.58;100.00;69501.63;5022094;28;20042;-60
2022/08/05 06:07:12;;;;;;;24.60;15.98;;;;;;;-146.58;100.00;69501.63;5022480;28;20038;-61
2022/08/05 06:09:37;;;;;;;28.55;15.45;;;;;;;-146.58;100.00;69501.63;5019142;28;20095;-61
2022/08/05 06:12:04;;;;;;;24.05;16.02;;;;;;;-146.58;100.00;69501.63;5022425;28;20060;-61
2022/08/05 06:14:30;;;;;;;21.55;15.43;;;;;;;-146.58;100.00;69501.63;5017337;28;20571;-60
2022/08/05 06:16:55;;;;;;;31.52;15.30;;;;;;;-146.58;100.00;69501.63;5024162;28;20071;-60
2022/08/05 06:19:21;;;;;;;22.60;16.77;;;;;;;-146.58;100.00;69501.63;5016064;28;20042;-61
2022/08/05 06:21:46;;;;;;;22.90;15.93;;;;;;;-146.58;100.00;69501.63;5022294;28;20014;-61
2022/08/05 06:24:11;;;;;;;26.00;18.33;;;;;;;-146.58;100.00;69501.63;5019382;28;20028;-60
2022/08/05 06:26:37;;;;;;;32.60;18.38;;;;;;;-146.58;100.00;69501.63;5020271;28;20038;-59
2022/08/05 06:29:02;;;;;;;19.67;16.92;;;;;;;-146.58;100.00;69501.63;5021376;28;21784;-59
2022/08/05 06:31:27;;;;;;;29.00;17.08;;;;;;;-146.58;100.00;69501.63;5016746;28;20046;-59
2022/08/05 06:33:53;;;;;;;21.98;16.38;;;;;;;-146.58;100.00;69501.63;5023092;28;20382;-58
2022/08/05 06:36:18;;;;;;;25.38;16.20;;;;;;;-146.58;100.00;69501.63;5019412;28;20060;-59
2022/08/05 06:38:44;;;;;;;24.67;17.13;;;;;;;-146.58;100.00;69501.63;5020743;28;20028;-59
2022/08/05 06:41:09;;;;;;;21.55;16.67;;;;;;;-146.58;100.00;69501.63;5020040;28;20517;-57
2022/08/05 06:43:36;;;;;;;21.63;17.67;;;;;;;-146.58;100.00;69501.63;5021093;28;20034;-58
2022/08/05 06:46:01;;;;;;;32.55;20.02;;;;;;;-146.58;100.00;69501.63;5019358;28;20498;-58
2022/08/05 06:48:26;;;;;;;26.95;19.00;;;;;;;-146.58;100.00;69501.63;5019618;28;20037;-58
2022/08/05 06:50:52;;;;;;;25.95;17.65;;;;;;;-146.58;100.00;69501.63;5021517;28;20513;-58
2022/08/05 06:53:17;;;;;;;22.80;17.02;;;;;;;-146.58;100.00;69501.63;5018258;28;20436;-58
2022/08/05 06:55:42;;;;;;;27.15;17.05;;;;;;;-146.58;100.00;69501.63;5019585;28;20044;-58
2022/08/05 06:58:08;;;;;;;21.15;15.80;;;;;;;-146.58;100.00;69501.63;5019163;28;20048;-58
2022/08/05 07:00:33;;;;;;;20.77;15.80;;;;;;;-146.58;100.00;69501.63;5025183;28;20660;-58
2022/08/05 07:02:59;;;;;;;23.33;16.05;;;;;;;-146.58;100.00;69501.63;5021020;28;20045;-58
2022/08/05 07:05:25;;;;;;;21.80;17.30;;;;;;;-146.58;100.00;69501.63;5012978;28;20045;-58
2022/08/05 07:07:50;;;;;;;18.98;14.13;;;;;;;-146.58;100.00;69501.63;5014820;28;20396;-58
2022/08/05 07:10:15;;;;;;;21.52;14.57;;;;;;;-146.58;100.00;69501.63;5024481;28;20046;-58
2022/08/05 07:18:08;;;;;;;18.02;13.90;;;;;;;-146.58;100.00;69501.63;5032119;28;20172;-57
2022/08/05 07:20:34;;;;;;;17.63;12.63;;;;;;;-146.58;100.00;69501.63;5029169;28;20054;-58
2022/08/05 07:22:59;;;;;;;19.25;14.43;;;;;;;-146.58;100.00;69501.63;5021934;28;20121;-57
2022/08/05 07:25:24;;;;;;;18.00;15.30;;;;;;;-146.58;100.00;69501.63;5018810;28;20045;-57
2022/08/05 07:27:52;;;;;;;16.58;14.00;;;;;;;-146.58;100.00;69501.63;5022563;28;20056;-58
2022/08/05 07:30:17;;;;;;;21.58;13.77;;;;;;;-146.58;100.00;69501.63;5019055;28;20041;-58
2022/08/05 07:32:42;;;;;;;15.32;13.07;;;;;;;-146.58;100.00;69501.63;5024692;28;20367;-57
2022/08/05 07:35:09;;;;;;;21.20;14.32;;;;;;;-146.58;100.00;69501.63;5015041;28;20050;-58
2022/08/05 07:37:34;;;;;;;20.80;13.40;;;;;;;-146.58;100.00;69501.63;5022496;28;20088;-58
2022/08/05 07:40:00;;;;;;;25.38;14.75;;;;;;;-146.58;100.00;69501.63;5024839;28;20037;-58
2022/08/05 07:42:26;;;;;;;18.80;14.25;;;;;;;-146.58;100.00;69501.63;5028896;28;20033;-57
2022/08/05 07:44:51;;;;;;;23.30;15.38;;;;;;;-146.58;100.00;69501.63;5014818;28;20088;-57
2022/08/05 07:47:16;;;;;;;17.10;13.35;;;;;;;-146.58;100.00;69501.63;5012511;28;20034;-58
2022/08/05 07:49:41;;;;;;;23.55;15.65;;;;;;;-146.58;100.00;69501.63;5014383;28;20559;-58
2022/08/05 07:52:07;;;;;;;24.92;15.15;;;;;;;-146.58;100.00;69501.63;5026835;28;20052;-57
2022/08/05 07:54:32;;;;;;;20.02;13.05;;;;;;;-146.58;100.00;69501.63;5024361;28;20045;-58
2022/08/05 07:56:58;;;;;;;20.45;14.32;;;;;;;-146.58;100.00;69501.63;5023361;28;20017;-58
2022/08/05 07:59:24;;;;;;;17.85;13.85;;;;;;;-146.58;100.00;69501.63;5012195;28;20038;-58
2022/08/05 08:01:49;;;;;;;19.08;15.13;;;;;;;-146.58;100.00;69501.63;5017694;28;20029;-58
2022/08/05 08:04:14;;;;;;;22.08;14.88;;;;;;;-146.58;100.00;69501.63;5017296;28;20021;-58
2022/08/05 08:06:40;;;;;;;21.58;16.15;;;;;;;-146.58;100.00;69501.63;5020138;28;20386;-58
2022/08/05 08:09:05;;;;;;;24.23;16.15;;;;;;;-146.58;100.00;69501.63;5009148;28;20029;-58
2022/08/05 08:11:31;;;;;;;23.65;17.40;;;;;;;-146.58;100.00;69501.63;5010376;28;20059;-58
2022/08/05 08:13:57;;;;;;;21.40;16.85;;;;;;;-146.58;100.00;69501.63;5010093;28;20504;-58
2022/08/05 08:16:22;;;;;;;23.90;18.83;;;;;;;-146.58;100.00;69501.63;5015589;28;20045;-56
2022/08/05 08:18:47;;;;;;;26.85;16.45;;;;;;;-146.58;100.00;69501.63;5031032;28;20029;-56
2022/08/05 08:21:13;;;;;;;18.65;16.23;;;;;;;-146.58;100.00;69501.63;5025174;28;20486;-56
2022/08/05 08:23:38;;;;;;;20.10;15.63;;;;;;;-146.58;100.00;69501.63;5010810;28;20072;-56
2022/08/05 08:26:03;;;;;;;24.48;20.35;;;;;;;-146.58;100.00;69501.63;5009618;28;20045;-56
2022/08/05 08:28:29;;;;;;;22.02;19.63;;;;;;;-146.58;100.00;69501.63;5011740;28;20045;-56
2022/08/05 08:30:54;;;;;;;29.98;20.90;;;;;;;-146.58;100.00;69501.63;5014555;28;20559;-56
2022/08/05 08:33:20;;;;;;;22.98;18.17;;;;;;;-146.58;100.00;69501.63;5030607;28;20028;-56
2022/08/05 08:35:45;;;;;;;19.17;16.52;;;;;;;-146.58;100.00;69501.63;5029127;28;20041;-56
2022/08/05 08:38:12;;;;;;;26.60;17.70;;;;;;;-146.58;100.00;69501.63;5030573;28;20119;-57
2022/08/05 08:40:38;;;;;;;21.10;17.35;;;;;;;-146.58;100.00;69501.63;5029213;28;20439;-56
2022/08/05 08:43:04;;;;;;;23.85;19.02;;;;;;;-146.58;100.00;69501.63;5017114;28;20053;-56
2022/08/05 08:45:30;;;;;;;18.60;16.33;;;;;;;-146.58;100.00;69501.63;5009217;28;20100;-56
2022/08/05 08:48:01;;;;;;;26.33;17.17;;;;;;;-146.58;100.00;69501.63;5011231;28;20105;-56
2022/08/05 08:50:27;;;;;;;22.38;17.48;;;;;;;-146.58;100.00;69501.63;5020536;28;20041;-57
2022/08/05 08:52:59;;;;;;;21.27;17.60;;;;;;;-146.58;100.00;69501.63;5012292;28;20115;-56
2022/08/05 08:55:25;;;;;;;24.90;20.50;;;;;;;-146.58;100.00;69501.63;5009396;28;20080;-57
2022/08/05 08:57:50;;;;;;;28.08;19.08;;;;;;;-146.58;100.00;69501.63;5024007;28;20029;-57
2022/08/05 09:00:15;;;;;;;19.50;16.85;;;;;;;-146.58;100.00;69501.63;5008999;28;20034;-56
2022/08/05 09:02:41;;;;;;;20.77;15.43;;;;;;;-146.58;100.00;69501.63;5015629;28;20041;-56
2022/08/05 09:05:09;;;;;;;21.35;16.02;;;;;;;-146.58;100.00;69501.63;5009092;28;20115;-56
2022/08/05 09:07:34;;;;;;;25.92;17.15;;;;;;;-146.58;100.00;69501.63;5018180;28;20033;-57
2022/08/05 09:10:00;;;;;;;25.27;19.45;;;;;;;-146.58;100.00;69501.63;5027096;28;20042;-56
2022/08/05 09:12:25;;;;;;;22.85;17.85;;;;;;;-146.58;100.00;69501.63;5025794;28;20036;-56
2022/08/05 09:14:51;;;;;;;22.92;17.98;;;;;;;-146.58;100.00;69501.63;5019972;28;20510;-56
2022/08/05 09:17:16;;;;;;;22.38;17.70;;;;;;;-146.58;100.00;69501.63;5016225;28;20041;-56
2022/08/05 09:19:41;;;;;;;26.83;20.73;;;;;;;-146.58;100.00;69501.63;5022176;28;20096;-57
2022/08/05 09:22:07;;;;;;;23.92;20.05;;;;;;;-146.58;100.00;69501.63;5010656;28;20034;-56
2022/08/05 09:24:36;;;;;;;18.67;16.25;;;;;;;-146.58;100.00;69501.63;5018370;28;20041;-57
2022/08/05 09:27:07;;;;;;;16.98;11.60;;;;;;;-146.58;100.00;69501.63;5018661;28;20049;-56
2022/08/05 09:29:41;;;;;;;14.90;8.38;;;;;;;-146.58;100.00;69501.63;5016664;28;20048;-56
2022/08/05 09:32:09;;;;;;;7.63;6.82;;;;;;;-146.58;100.00;69501.63;5019636;28;20061;-56
2022/08/05 09:34:53;;;;;;;13.63;6.55;;;;;;;-146.58;100.00;69501.63;5016458;28;20069;-56
2022/08/05 09:37:24;;;;;;;6.00;5.45;;;;;;;-146.58;100.00;69501.63;5018070;28;20029;-56
2022/08/05 09:39:50;;;;;;;10.60;4.43;;;;;;;-146.58;100.00;69501.63;5018807;28;20069;-56
2022/08/05 09:42:17;;;;;;;6.57;4.72;;;;;;;-146.58;100.00;69501.63;5013059;28;20092;-56
2022/08/05 09:44:44;;;;;;;9.60;4.40;;;;;;;-146.58;100.00;69501.63;5016343;28;20038;-56
2022/08/05 09:47:24;;;;;;;21.88;7.40;;;;;;;-146.58;100.00;69501.63;5018549;28;20366;-57
2022/08/05 09:49:55;;;;;;;11.55;4.63;;;;;;;-146.58;100.00;69501.63;5015503;28;20056;-56
2022/08/05 09:52:24;;;;;;;7.63;4.53;;;;;;;-146.58;100.00;69501.63;5019559;28;20505;-56
2022/08/05 09:55:08;;;;;;;8.75;4.30;;;;;;;-146.58;100.00;69501.63;5018739;28;20413;-56
2022/08/05 09:57:36;;;;;;;5.88;3.05;;;;;;;-146.58;100.00;69501.63;5026356;28;20029;-56
2022/08/05 10:00:10;;;;;;;9.25;3.08;;;;;;;-146.58;100.00;69501.63;5014002;28;20117;-56
2022/08/05 10:02:56;;;;;;;6.55;2.85;;;;;;;20.22;100.00;165857.66;5010213;28;20033;-56
2022/08/05 10:05:28;;;;;;;6.78;3.00;;;;;;;20.52;100.00;165937.72;5019964;28;20042;-56
2022/08/05 10:07:56;;;;;;;10.23;2.90;;;;;;;20.77;100.00;166002.97;5020588;28;20037;-56
2022/08/05 10:10:31;;;;;;;6.03;2.28;;;;;;;-146.58;100.00;69501.63;5018830;28;20049;-56
2022/08/05 10:12:58;;;;;;;3.78;1.95;;;;;;;-146.58;100.00;69501.63;5023469;28;20041;-56
2022/08/05 10:15:27;;;;;;;5.50;2.47;;;;;;;-146.58;100.00;69501.63;5030190;28;20037;-56
2022/08/05 10:18:11;;;;;;;8.10;2.00;;;;;;;20.77;100.00;166002.97;5031984;28;20489;-57
2022/08/05 10:20:40;;;;;;;4.72;1.90;;;;;;;20.32;100.00;165883.44;5012807;28;20413;-56
2022/08/05 10:23:06;;;;;;;6.25;3.05;;;;;;;20.10;100.00;165826.44;5024216;28;20021;-55
2022/08/05 10:25:31;;;;;;;4.78;2.00;;;;;;;19.96;100.00;165791.16;5031442;28;20531;-56
2022/08/05 10:27:57;;;;;;;4.57;1.92;;;;;;;19.86;100.00;165764.00;5032016;28;20184;-55
2022/08/05 10:30:22;;;;;;;5.65;2.20;;;;;;;19.90;100.00;165774.88;5019169;28;20038;-56
2022/08/05 10:32:48;;;;;;;7.38;2.45;;;;;;;19.92;100.00;165780.28;5013402;28;20102;-55
2022/08/05 10:35:14;;;;;;;2.70;1.33;;;;;;;19.89;100.00;165772.16;5012173;28;20037;-55
2022/08/05 10:37:40;;;;;;;4.07;1.88;;;;;;;19.96;100.00;165789.78;5013039;28;20022;-55
2022/08/05 10:40:15;;;;;;;5.50;2.40;;;;;;;20.28;100.00;165873.94;5011723;28;20520;-55
2022/08/05 10:42:43;;;;;;;3.85;1.55;;;;;;;20.50;100.00;165932.34;5021187;28;20037;-55
2022/08/05 10:45:10;;;;;;;;;;;;;;;-146.58;100.00;69501.63;5016238;28;20034;-55
2022/08/05 10:47:43;;;;;;;2.28;1.52;;;;;;;-146.58;100.00;69501.63;5023151;28;19913;-55
2022/08/05 10:50:12;;;;;;;7.47;2.72;;;;;;;21.60;100.00;166220.28;5031586;28;20106;-56
2022/08/05 10:52:51;;;;;;;2.97;1.65;;;;;;;21.50;100.00;166195.78;5025529;28;20029;-55
2022/08/05 10:55:17;;;;;;;8.15;2.45;;;;;;;21.65;100.00;166233.84;5011642;28;20076;-55
2022/08/05 10:57:44;;;;;;;4.22;2.00;;;;;;;21.91;100.00;166303.16;5013575;28;20029;-56
2022/08/05 11:00:20;;;;;;;2.30;1.55;;;;;;;22.39;100.00;166429.53;5016190;28;20042;-56
2022/08/05 11:02:57;;;;;;;2.50;1.55;;;;;;;22.64;100.00;166494.78;5020212;28;20033;-56
2022/08/05 11:05:23;;;;;;;5.38;2.53;;;;;;;22.05;100.00;166338.44;5018634;28;20092;-56
2022/08/05 11:07:59;;;;;;;4.97;1.63;;;;;;;21.93;100.00;166307.25;5019715;28;20029;-56